Latest Weather Observations for Mount Buller

IDV60801

Issued at 2:05 pm EST Tuesday 23 September 2014 (issued every 30 minutes, with the page automatically refreshed every 10 minutes)

About weather observations | Map of weather stations | Latest weather observations for VIC | Other Formats
Station Details ID: 083024 Name: MOUNT BULLER Lat: -37.15 Lon: 146.44 Height: 1707.0 m
Data from the previous 72 hours. | See also: Recent months at Mount Buller
Date/Time
EST
Temp
°C
App
Temp
°C
Dew
Point
Rel
Hum
%
Delta-T
°C
Wind Press
QNH
hPa
Press
MSL
hPa
Rain
since 9 am
mm
Dir
 
Spd
km/h
Gust
km/h
Spd
kts
Gust
kts
23/02:00pm 12.0 - 3.8 57 4.1 - - - - - - - -
23/01:30pm 11.8 - 3.6 57 4.0 - - - - - - - -
23/01:00pm 11.6 - 3.1 56 4.1 - - - - - - - -
23/12:30pm 10.6 - 1.7 54 4.2 - - - - - - - -
23/12:00pm 11.5 - 2.5 54 4.3 - - - - - - - -
23/11:30am 10.7 - 2.3 56 4.0 - - - - - - - -
23/11:00am 10.0 - 0.1 50 4.4 - - - - - - - -
23/10:30am 10.4 - 1.8 55 4.0 - - - - - - - -
23/10:00am 9.3 - -0.6 50 4.3 - - - - - - - -
23/09:30am 9.7 - -0.8 48 4.6 - - - - - - - -
23/09:00am 9.0 - -0.9 50 4.3 - - - - - - - 0.0
23/08:30am 8.0 - -1.8 50 4.1 - - - - - - - -
23/08:00am 7.6 - -1.4 53 3.8 - - - - - - - -
23/07:30am 6.7 - -1.7 55 3.5 - - - - - - - -
23/07:00am 5.9 - -2.0 57 3.2 - - - - - - - -
23/06:30am 4.9 - -2.4 59 2.9 - - - - - - - -
23/06:00am 4.0 - -3.0 60 2.7 - - - - - - - -
23/05:30am 3.9 - -3.4 59 2.8 - - - - - - - -
23/05:00am 3.7 - -3.3 60 2.7 - - - - - - - -
23/04:30am 4.6 - -3.2 57 3.1 - - - - - - - -
23/04:00am 4.2 - -3.5 57 3.0 - - - - - - - -
23/03:30am 4.2 - -4.0 55 3.1 - - - - - - - -
23/03:00am 4.3 - -4.4 53 3.3 - - - - - - - 0.0
23/02:30am 4.4 - -4.6 52 3.4 - - - - - - - -
23/02:00am 4.0 - -6.6 46 3.8 - - - - - - - -
23/01:30am 4.5 - -3.5 56 3.1 - - - - - - - -
23/01:00am 4.7 - -4.6 51 3.5 - - - - - - - -
23/12:30am 4.6 - -3.6 55 3.2 - - - - - - - -
23/12:00am 4.8 - 0.8 75 1.7 - - - - - - - -
 
Date/Time
EST
Temp
°C
App
Temp
°C
Dew
Point
Rel
Hum
%
Delta-T
°C
Wind Press
QNH
hPa
Press
MSL
hPa
Rain
since 9 am
mm
Dir
 
Spd
km/h
Gust
km/h
Spd
kts
Gust
kts
22/11:30pm 5.2 - 0.0 69 2.2 - - - - - - - -
22/11:00pm 5.5 - 1.2 74 1.9 - - - - - - - -
22/10:30pm 6.0 - 1.3 72 2.1 - - - - - - - -
22/10:00pm 5.8 - 1.9 76 1.8 - - - - - - - -
22/09:30pm 5.6 - 0.8 71 2.1 - - - - - - - -
22/09:00pm 5.6 - 0.4 69 2.3 - - - - - - - 0.0
22/08:30pm 5.3 - 1.2 75 1.8 - - - - - - - -
22/08:00pm 5.4 - -0.6 65 2.5 - - - - - - - -
22/07:30pm 6.3 - 0.2 65 2.7 - - - - - - - -
22/07:00pm 5.3 - -0.7 65 2.5 - - - - - - - -
22/06:30pm 5.2 - -0.4 67 2.4 - - - - - - - -
22/06:00pm 6.3 - 0.2 65 2.7 - - - - - - - -
22/05:30pm 8.1 - 1.5 63 3.0 - - - - - - - -
22/05:00pm 8.5 - 2.1 64 3.0 - - - - - - - -
22/04:30pm 9.4 - 1.1 56 3.8 - - - - - - - -
22/04:00pm 10.1 - 3.6 64 3.2 - - - - - - - -
22/03:30pm 9.5 - 2.6 62 3.3 - - - - - - - -
22/03:00pm 9.8 - 4.0 67 2.8 - - - - - - - 0.0
22/02:30pm 10.6 - 4.5 66 3.0 - - - - - - - -
22/02:00pm 10.8 - 3.8 62 3.4 - - - - - - - -
22/01:30pm 10.5 - 3.5 62 3.4 - - - - - - - -
22/01:00pm 9.8 - 2.9 62 3.3 - - - - - - - -
22/12:30pm 9.8 - 2.2 59 3.6 - - - - - - - -
22/12:00pm 10.1 - 2.7 60 3.5 - - - - - - - -
22/11:30am 9.2 - 1.9 60 3.4 - - - - - - - -
22/11:00am 10.0 - 2.4 59 3.6 - - - - - - - -
22/10:30am 9.7 - 1.4 56 3.8 - - - - - - - -
22/10:00am 9.1 - 1.0 57 3.7 - - - - - - - -
22/09:30am 7.0 - 1.7 69 2.4 - - - - - - - -
22/09:00am 6.6 - 1.9 72 2.1 - - - - - - - 0.0
22/08:30am 6.6 - 1.3 69 2.4 - - - - - - - -
22/08:00am 5.6 - 0.8 71 2.1 - - - - - - - -
22/07:30am 5.4 - 0.4 70 2.2 - - - - - - - -
22/07:00am 5.1 - -0.1 69 2.2 - - - - - - - -
22/06:30am 3.7 - -0.7 73 1.8 - - - - - - - -
22/06:00am 3.0 - -0.3 79 1.4 - - - - - - - -
22/05:30am 3.4 - -0.4 76 1.6 - - - - - - - -
22/05:00am 3.7 - -1.1 71 2.0 - - - - - - - -
22/04:30am 3.5 - -1.1 72 1.9 - - - - - - - -
22/04:00am 3.5 - -0.9 73 1.8 - - - - - - - -
22/03:30am 3.2 - -4.0 59 2.7 - - - - - - - -
22/03:00am 4.0 - -4.4 54 3.2 - - - - - - - 0.0
22/02:30am 3.9 - -2.7 62 2.6 - - - - - - - -
22/02:00am 3.4 - -3.4 61 2.6 - - - - - - - -
22/01:30am 3.7 - -9.3 38 4.5 - - - - - - - -
22/01:00am 3.6 - -9.7 37 4.6 - - - - - - - -
22/12:30am 4.8 - -12.6 27 5.7 - - - - - - - -
22/12:00am 5.2 - -12.2 27 5.8 - - - - - - - -
 
Date/Time
EST
Temp
°C
App
Temp
°C
Dew
Point
Rel
Hum
%
Delta-T
°C
Wind Press
QNH
hPa
Press
MSL
hPa
Rain
since 9 am
mm
Dir
 
Spd
km/h
Gust
km/h
Spd
kts
Gust
kts
21/11:30pm 4.6 - -11.9 29 5.5 - - - - - - - -
21/11:00pm 3.9 - -8.8 39 4.5 - - - - - - - -
21/10:30pm 3.9 - -8.4 40 4.4 - - - - - - - -
21/10:00pm 3.6 - -6.1 49 3.5 - - - - - - - -
21/09:30pm 3.8 - -3.7 58 2.9 - - - - - - - -
21/09:00pm 3.7 - -4.0 57 2.9 - - - - - - - 0.0
21/08:30pm 2.9 - -2.0 70 1.9 - - - - - - - -
21/08:00pm 3.6 - -1.2 71 2.0 - - - - - - - -
21/07:30pm 3.2 - -0.4 77 1.5 - - - - - - - -
21/07:00pm 3.4 - -0.1 78 1.5 - - - - - - - -
21/06:30pm 3.6 - -0.4 75 1.7 - - - - - - - -
21/06:00pm 3.9 - -0.3 74 1.8 - - - - - - - -
21/05:30pm 4.5 - 0.1 73 1.9 - - - - - - - -
21/05:00pm 5.0 - 0.2 71 2.1 - - - - - - - -
21/04:30pm 5.0 - 0.2 71 2.1 - - - - - - - -
21/04:00pm 5.6 - 0.6 70 2.2 - - - - - - - -
21/03:30pm 6.0 - 0.6 68 2.4 - - - - - - - -
21/03:00pm 5.7 - 0.5 69 2.3 - - - - - - - 0.0
21/02:30pm 5.8 - 0.2 67 2.4 - - - - - - - -
21/02:00pm 6.3 - 0.4 66 2.6 - - - - - - - -
21/01:30pm 5.8 - 0.6 69 2.3 - - - - - - - -
21/01:00pm 5.4 - 0.0 68 2.3 - - - - - - - -
21/12:30pm 5.7 - -0.1 66 2.5 - - - - - - - -
21/12:00pm 6.0 - 0.1 66 2.5 - - - - - - - -
21/11:30am 7.3 - 1.0 64 2.8 - - - - - - - -
21/11:00am 6.5 - -0.9 59 3.1 - - - - - - - -
21/10:30am 6.8 - -0.6 59 3.2 - - - - - - - -
21/10:00am 6.1 - -0.8 61 2.9 - - - - - - - -
21/09:30am 6.4 - -2.0 55 3.5 - - - - - - - -
21/09:00am 6.5 - -18.2 15 7.3 - - - - - - - 0.0
21/08:30am 6.0 - -27.2 7 7.8 - - - - - - - -
21/08:00am 5.2 - -22.8 11 7.2 - - - - - - - -
21/07:30am 5.1 - -25.1 9 7.3 - - - - - - - -
21/07:00am 4.6 - -25.5 9 7.1 - - - - - - - -
21/06:30am 4.4 - -26.9 8 7.1 - - - - - - - -
21/06:00am 4.6 - -28.2 7 7.3 - - - - - - - -
21/05:30am 3.7 - -22.1 13 6.5 - - - - - - - -
21/05:00am 1.8 - -15.2 27 4.9 - - - - - - - -
21/04:30am 4.3 - -25.7 9 7.0 - - - - - - - -
21/04:00am 5.3 - -29.3 6 7.6 - - - - - - - -
21/03:30am 5.4 - -27.6 7 7.6 - - - - - - - -
21/03:00am 5.5 - -26.1 8 7.5 - - - - - - - 0.0
21/02:30am 4.9 - -26.6 8 7.3 - - - - - - - -
21/02:00am 4.3 - -23.5 11 6.9 - - - - - - - -
21/01:30am 3.7 - -21.3 14 6.4 - - - - - - - -
21/01:00am 3.8 - -20.4 15 6.4 - - - - - - - -
21/12:30am 2.7 - -16.3 23 5.4 - - - - - - - -
21/12:00am 2.2 - -14.0 29 4.8 - - - - - - - -
 
Date/Time
EST
Temp
°C
App
Temp
°C
Dew
Point
Rel
Hum
%
Delta-T
°C
Wind Press
QNH
hPa
Press
MSL
hPa
Rain
since 9 am
mm
Dir
 
Spd
km/h
Gust
km/h
Spd
kts
Gust
kts
20/11:30pm 2.9 - -15.2 25 5.3 - - - - - - - -
20/11:00pm 3.8 - -15.4 23 5.7 - - - - - - - -
20/10:30pm 1.9 - -7.4 50 3.3 - - - - - - - -
20/10:00pm 1.2 - -5.3 62 2.4 - - - - - - - -
20/09:30pm 0.1 - -2.1 85 0.9 - - - - - - - -
20/09:00pm -0.1 - -1.7 89 0.6 - - - - - - - 0.0
20/08:30pm 0.2 - -1.5 88 0.7 - - - - - - - -
20/08:00pm 0.3 - -1.6 87 0.8 - - - - - - - -
20/07:30pm 0.4 - -1.7 86 0.8 - - - - - - - -
20/07:00pm 0.8 - -0.8 89 0.6 - - - - - - - -
20/06:30pm 1.3 - -0.5 88 0.7 - - - - - - - -
20/06:00pm 1.3 - -0.6 87 0.8 - - - - - - - -
20/05:30pm 2.6 - -0.2 82 1.2 - - - - - - - -
20/05:00pm 3.3 - 0.0 79 1.4 - - - - - - - -
20/04:30pm 3.7 - -0.1 76 1.6 - - - - - - - -
20/04:00pm 3.9 - 0.1 76 1.6 - - - - - - - -
20/03:30pm 4.0 - 0.2 76 1.6 - - - - - - - -
20/03:00pm 4.3 - 0.3 75 1.7 - - - - - - - 0.0
20/02:30pm 5.1 - 0.7 73 1.9 - - - - - - - -

Other Formats:

Comma delimited format used in spreadsheet applications
http://www.bom.gov.au/fwo/IDV60801/IDV60801.94894.axf

JavaScript Object Notation format (JSON) in row-major order
http://www.bom.gov.au/fwo/IDV60801/IDV60801.94894.json